West Branch, IA

12:34 PM CDT on May 05, 2015 (GMT -0500)
DeValois' Weather from Windsor West | | Change Station
CLOSE
Current Station
Personal Weather Station
Location: Iowa City, IA
Elevation: 748 ft
Nearby Weather Stations

Elev 748 ft 41.65 °N, 91.48 °W | Updated 1 second ago

Overcast
Overcast
64.2 °F
Feels Like 64.2 °F
N
2.0
Wind Variable Wind from West
Gusts 6.0 mph

Today
High -- | Low -- °F
--% Chance of Precip.
Yesterday
High -- | Low -- °F
Precip. -- in
5:57 AM 8:07 PM
Full, 97% visible
Pressure 30.17 in
Visibility 4.0 miles
Clouds Mostly Cloudy 1000 ft
Mostly Cloudy 1800 ft
Dew Point 62 °F
Humidity 93%
Rainfall 1.15 in
Snow Depth Not available.
UV 5 out of 12
Pollen 3.30 out of 12
Air Quality Not available.
Flu Activity Local Activity
SPECI KIOW 051718Z AUTO 07009KT 4SM BR BKN010 BKN018 20/18 A3017 RMK AO2 CIG 007V013 T02000178

More Conditions Fewer Conditions

Pressure 30.17 in
Visibility 4.0 miles
Clouds Mostly Cloudy 1000 ft
Mostly Cloudy 1800 ft
Dew Point 62 °F
Humidity 93%
Rainfall 1.15 in
Snow Depth Not available.
UV 5 out of 12
Pollen 3.30 out of 12
Air Quality Not available.
Flu Activity Local Activity
SPECI KIOW 051718Z AUTO 07009KT 4SM BR BKN010 BKN018 20/18 A3017 RMK AO2 CIG 007V013 T02000178

More Conditions Fewer Conditions

10-Day Weather Forecast

Almanac

Astronomy

May. 05, 2015 Rise Set
Actual Time
Civil Twilight
Nautical Twilight
Astronomical Twilight
Moon
Length of Visible Light
Length of Day
Tomorrow will be .
, % of the Moon is Illuminated

Today's Extremes

State Highs State Lows

Community

WunderPhotos

Upload Photos

1,818,948 photos uploaded!

WunderBlogs® & News

Nearby

Air Quality

  Air Quality AQ Index Pollutant
Not available.

Snow Depth

Station Depth Elevation

Earthquake Activity

City Distance Mag. Time & Date
Minimum magnitude displayed is 2.5.

Coastal Water Temperatures

Place Temperature

Stations

Nearby Weather Stations

Station Location Temp. Windchill Dew Point Humidity Wind Precip. Elev Updated Type